Time;durP1;ratioP1;P1;durP2;ratioP2;P2;SDS_P1;SDS_P2;PMS_P1;PMS_P2;Temp;Humidity;BMP_temperature;BMP_pressure;BME280_temperature;BME280_humidity;BME280_pressure;Samples;Min_cycle;Max_cycle;Signal;HPM_P1;HPM_P2
2024/04/09 00:01:49;;;;;;;4.57;2.37;;;;;;;;;;6344128;22;20262;-92
2024/04/09 00:04:15;;;;;;;5.77;3.13;;;;;;;;;;6385720;22;20289;-90
2024/04/09 00:06:43;;;;;;;9.83;5.03;;;;;;;;;;6344474;22;20252;-90
2024/04/09 00:09:11;;;;;;;7.40;4.13;;;;;;;;;;6345343;22;20274;-90
2024/04/09 00:11:37;;;;;;;5.00;4.00;;;;;;;;;;6343986;22;20309;-92
2024/04/09 00:14:04;;;;;;;8.03;3.43;;;;;;;;;;6425810;22;20255;-92
2024/04/09 00:16:33;;;;;;;5.17;3.90;;;;;;;;;;6385271;22;20259;-92
2024/04/09 00:18:59;;;;;;;6.80;3.80;;;;;;;;;;6426160;22;20740;-92
2024/04/09 00:21:28;;;;;;;3.87;3.47;;;;;;;;;;6385653;22;20236;-92
2024/04/09 00:23:56;;;;;;;9.20;4.33;;;;;;;;;;6384534;22;20807;-92
2024/04/09 00:26:22;;;;;;;11.57;4.53;;;;;;;;;;6377628;22;20264;-92
2024/04/09 00:28:49;;;;;;;7.17;4.67;;;;;;;;;;6376897;22;20314;-93
2024/04/09 00:31:18;;;;;;;4.23;3.53;;;;;;;;;;6377388;22;20314;-93
2024/04/09 00:33:45;;;;;;;6.83;5.17;;;;;;;;;;6337048;22;20252;-93
2024/04/09 00:36:14;;;;;;;7.50;4.73;;;;;;;;;;6378777;22;20640;-94
2024/04/09 00:38:47;;;;;;;4.73;4.20;;;;;;;;;;6337670;22;20276;-93
2024/04/09 00:41:14;;;;;;;7.33;4.60;;;;;;;;;;6378184;22;20275;-93
2024/04/09 00:43:41;;;;;;;4.73;3.20;;;;;;;;;;6377920;22;20303;-92
2024/04/09 00:46:10;;;;;;;5.07;3.63;;;;;;;;;;6378194;22;20651;-93
2024/04/09 00:48:37;;;;;;;11.17;4.10;;;;;;;;;;6338704;22;20342;-92
2024/04/09 00:51:07;;;;;;;6.50;4.17;;;;;;;;;;6377534;22;20268;-93
2024/04/09 00:53:33;;;;;;;4.40;2.27;;;;;;;;;;6377738;22;20739;-93
2024/04/09 00:56:01;;;;;;;4.13;3.70;;;;;;;;;;6377684;22;20267;-92
2024/04/09 00:58:27;;;;;;;1.87;1.57;;;;;;;;;;6337361;22;20375;-92
2024/04/09 01:00:53;;;;;;;5.90;2.90;;;;;;;;;;6377376;22;20282;-92
2024/04/09 01:03:22;;;;;;;2.40;2.20;;;;;;;;;;6337898;22;20236;-92
2024/04/09 01:05:48;;;;;;;2.77;2.27;;;;;;;;;;6336928;22;20264;-91
2024/04/09 01:08:14;;;;;;;5.50;2.40;;;;;;;;;;6337041;22;20271;-92
2024/04/09 01:10:40;;;;;;;3.17;2.87;;;;;;;;;;6336767;22;20276;-92
2024/04/09 01:13:07;;;;;;;3.27;2.37;;;;;;;;;;6336262;22;20318;-91
2024/04/09 01:15:33;;;;;;;5.67;3.10;;;;;;;;;;6337400;22;20240;-92
2024/04/09 01:17:59;;;;;;;5.07;3.60;;;;;;;;;;6337120;22;20268;-92
2024/04/09 01:20:25;;;;;;;5.50;3.80;;;;;;;;;;6377087;22;20259;-92
2024/04/09 01:22:51;;;;;;;14.43;3.97;;;;;;;;;;6336374;22;20268;-92
2024/04/09 01:25:17;;;;;;;9.27;5.03;;;;;;;;;;6419254;22;20298;-92
2024/04/09 01:27:44;;;;;;;7.37;5.37;;;;;;;;;;6336404;22;20252;-89
2024/04/09 01:30:12;;;;;;;5.67;5.03;;;;;;;;;;6337004;22;20349;-93
2024/04/09 01:32:40;;;;;;;7.73;5.07;;;;;;;;;;6376493;22;20312;-89
2024/04/09 01:35:06;;;;;;;5.50;5.00;;;;;;;;;;6337687;22;20268;-92
2024/04/09 01:37:39;;;;;;;8.23;5.13;;;;;;;;;;6418693;22;20275;-92
2024/04/09 01:40:06;;;;;;;8.20;5.90;;;;;;;;;;6377587;22;20259;-91
2024/04/09 01:42:33;;;;;;;6.87;4.77;;;;;;;;;;6337879;22;20347;-92
2024/04/09 01:44:59;;;;;;;3.27;2.90;;;;;;;;;;6377689;22;20640;-91
2024/04/09 01:47:25;;;;;;;4.93;4.50;;;;;;;;;;6337091;22;20290;-91
2024/04/09 01:49:52;;;;;;;9.73;4.53;;;;;;;;;;6337308;22;20302;-92
2024/04/09 01:52:19;;;;;;;3.80;2.97;;;;;;;;;;6336806;22;20268;-92
2024/04/09 01:54:48;;;;;;;6.23;4.33;;;;;;;;;;6337652;22;20241;-92
2024/04/09 01:57:14;;;;;;;3.67;3.43;;;;;;;;;;6419730;22;20240;-92
2024/04/09 01:59:41;;;;;;;6.13;5.40;;;;;;;;;;6336996;22;20268;-92
2024/04/09 02:02:07;;;;;;;6.33;3.43;;;;;;;;;;6337354;22;20269;-91
2024/04/09 02:04:34;;;;;;;4.03;3.27;;;;;;;;;;6377525;22;20268;-92
2024/04/09 02:07:00;;;;;;;6.90;3.57;;;;;;;;;;6376883;22;20283;-92
2024/04/09 02:09:27;;;;;;;6.30;5.07;;;;;;;;;;6338017;22;20255;-92
2024/04/09 02:11:54;;;;;;;6.67;4.10;;;;;;;;;;6370232;22;20267;-92
2024/04/09 02:14:22;;;;;;;4.37;3.93;;;;;;;;;;6339253;22;20267;-92
2024/04/09 02:16:50;;;;;;;7.33;3.90;;;;;;;;;;6334600;22;20301;-92
2024/04/09 02:19:16;;;;;;;5.90;3.43;;;;;;;;;;6339224;22;20260;-91
2024/04/09 02:21:42;;;;;;;7.27;3.90;;;;;;;;;;6339231;22;20772;-92
2024/04/09 02:24:08;;;;;;;4.90;3.73;;;;;;;;;;6339072;22;20278;-92
2024/04/09 02:26:34;;;;;;;7.97;4.13;;;;;;;;;;6338651;22;20290;-93
2024/04/09 02:29:03;;;;;;;4.63;3.73;;;;;;;;;;6379377;22;20271;-92
2024/04/09 02:31:29;;;;;;;3.20;2.90;;;;;;;;;;6339712;22;20268;-92
2024/04/09 02:33:58;;;;;;;3.03;2.60;;;;;;;;;;6340379;22;20348;-92
2024/04/09 02:36:24;;;;;;;2.77;2.33;;;;;;;;;;6380107;22;20240;-93
2024/04/09 02:38:50;;;;;;;2.77;2.47;;;;;;;;;;6338889;22;20371;-92
2024/04/09 02:41:17;;;;;;;2.43;2.23;;;;;;;;;;6380115;22;20714;-93
2024/04/09 02:43:43;;;;;;;1.67;1.57;;;;;;;;;;6339423;22;20762;-92
2024/04/09 02:46:12;;;;;;;2.03;1.80;;;;;;;;;;6380594;22;20307;-92
2024/04/09 02:48:39;;;;;;;2.73;2.37;;;;;;;;;;6380793;22;20292;-92
2024/04/09 02:51:05;;;;;;;1.57;1.47;;;;;;;;;;6420495;22;20422;-92
2024/04/09 02:53:32;;;;;;;3.33;2.03;;;;;;;;;;6338797;22;20264;-92
2024/04/09 02:56:05;;;;;;;3.07;2.03;;;;;;;;;;6379093;22;20306;-93
2024/04/09 02:58:32;;;;;;;1.40;1.30;;;;;;;;;;6379369;22;20268;-93
2024/04/09 03:00:59;;;;;;;10.93;1.27;;;;;;;;;;6338363;22;20288;-94
2024/04/09 03:03:25;;;;;;;1.30;1.10;;;;;;;;;;6339382;22;20255;-92
2024/04/09 03:05:51;;;;;;;1.63;1.53;;;;;;;;;;6338383;22;20272;-94
2024/04/09 03:08:17;;;;;;;1.33;1.23;;;;;;;;;;6378993;22;20702;-91
2024/04/09 03:10:43;;;;;;;13.37;1.43;;;;;;;;;;6339032;22;20306;-91
2024/04/09 03:13:09;;;;;;;3.97;1.77;;;;;;;;;;6338660;22;20555;-92
2024/04/09 03:15:37;;;;;;;1.00;0.90;;;;;;;;;;6339228;22;20252;-91
2024/04/09 03:18:03;;;;;;;2.00;1.20;;;;;;;;;;6379483;22;20354;-91
2024/04/09 03:20:29;;;;;;;11.40;1.67;;;;;;;;;;6377804;22;20264;-91
2024/04/09 03:22:55;;;;;;;4.53;1.73;;;;;;;;;;6419909;22;20363;-92
2024/04/09 03:25:21;;;;;;;5.50;0.90;;;;;;;;;;6338471;22;20260;-90
2024/04/09 03:27:47;;;;;;;2.00;1.43;;;;;;;;;;6338247;22;20239;-90
2024/04/09 03:30:13;;;;;;;1.20;1.10;;;;;;;;;;6339098;22;20240;-91
2024/04/09 03:32:39;;;;;;;0.90;0.90;;;;;;;;;;6378686;22;20319;-90
2024/04/09 03:35:06;;;;;;;1.27;1.17;;;;;;;;;;6377910;22;20268;-93
2024/04/09 03:37:33;;;;;;;2.17;1.30;;;;;;;;;;6338072;22;20309;-91
2024/04/09 03:39:59;;;;;;;1.47;1.23;;;;;;;;;;6337461;22;20670;-91
2024/04/09 03:42:25;;;;;;;1.23;1.13;;;;;;;;;;6377793;22;20271;-91
2024/04/09 03:44:51;;;;;;;1.67;1.00;;;;;;;;;;6335340;22;20335;-91
2024/04/09 03:47:17;;;;;;;4.73;1.47;;;;;;;;;;6418195;22;20764;-90
2024/04/09 03:49:43;;;;;;;1.33;1.23;;;;;;;;;;6335831;22;20418;-92
2024/04/09 03:52:10;;;;;;;3.70;1.63;;;;;;;;;;6334572;22;20260;-92
2024/04/09 03:54:37;;;;;;;2.27;1.80;;;;;;;;;;6336473;22;20271;-92
2024/04/09 03:57:06;;;;;;;3.00;2.07;;;;;;;;;;6376663;22;20260;-93
2024/04/09 03:59:33;;;;;;;2.03;1.83;;;;;;;;;;6337081;22;20291;-92
2024/04/09 04:01:59;;;;;;;3.67;1.83;;;;;;;;;;6335130;22;20271;-92
2024/04/09 04:04:26;;;;;;;2.27;2.07;;;;;;;;;;6417166;22;20299;-92
2024/04/09 04:06:52;;;;;;;4.00;2.43;;;;;;;;;;6417282;22;20292;-92
2024/04/09 04:09:18;;;;;;;4.27;2.53;;;;;;;;;;6335888;22;20244;-92
2024/04/09 04:11:45;;;;;;;3.27;1.70;;;;;;;;;;6320526;22;20260;-92
2024/04/09 04:14:11;;;;;;;1.27;1.17;;;;;;;;;;6336608;22;20599;-93
2024/04/09 04:16:37;;;;;;;3.33;2.60;;;;;;;;;;6337134;22;20306;-92
2024/04/09 04:19:03;;;;;;;3.30;1.53;;;;;;;;;;6337423;22;20240;-91
2024/04/09 04:21:29;;;;;;;2.27;2.07;;;;;;;;;;6337860;22;20686;-90
2024/04/09 04:23:55;;;;;;;3.90;0.90;;;;;;;;;;6336900;22;20268;-93
2024/04/09 04:26:25;;;;;;;0.87;0.87;;;;;;;;;;6419278;22;20355;-90
2024/04/09 04:28:52;;;;;;;1.20;0.53;;;;;;;;;;6376815;22;20694;-90
2024/04/09 04:31:19;;;;;;;0.50;0.50;;;;;;;;;;6377785;22;20263;-92
2024/04/09 04:33:45;;;;;;;0.60;0.50;;;;;;;;;;6420087;22;20606;-90
2024/04/09 04:36:12;;;;;;;1.70;0.97;;;;;;;;;;6418806;22;20351;-91
2024/04/09 04:38:39;;;;;;;0.87;0.77;;;;;;;;;;6377650;22;20378;-91
2024/04/09 04:41:05;;;;;;;1.60;1.57;;;;;;;;;;6418699;22;20268;-91
2024/04/09 04:43:31;;;;;;;0.90;0.90;;;;;;;;;;6336241;22;20264;-91
2024/04/09 04:45:58;;;;;;;0.70;0.70;;;;;;;;;;6418837;22;20299;-91
2024/04/09 04:48:24;;;;;;;1.67;0.93;;;;;;;;;;6337700;22;20240;-91
2024/04/09 04:50:52;;;;;;;0.40;0.40;;;;;;;;;;6375663;22;20308;-91
2024/04/09 04:53:18;;;;;;;1.07;0.80;;;;;;;;;;6375332;22;20276;-93
2024/04/09 04:55:44;;;;;;;9.77;0.50;;;;;;;;;;6293934;22;20295;-93
2024/04/09 04:58:10;;;;;;;0.50;0.50;;;;;;;;;;6333827;22;20665;-91
2024/04/09 05:00:37;;;;;;;1.77;1.10;;;;;;;;;;6335177;22;20705;-90
2024/04/09 05:03:03;;;;;;;1.13;0.73;;;;;;;;;;6335081;22;20367;-90
2024/04/09 05:05:30;;;;;;;0.57;0.57;;;;;;;;;;6334802;22;20336;-90
2024/04/09 05:07:56;;;;;;;0.47;0.47;;;;;;;;;;6334954;22;20295;-91
2024/04/09 05:10:22;;;;;;;0.70;0.70;;;;;;;;;;6334998;22;20272;-89
2024/04/09 05:12:54;;;;;;;1.20;1.10;;;;;;;;;;6294556;22;20290;-89
2024/04/09 05:15:21;;;;;;;0.93;0.73;;;;;;;;;;6333667;22;20300;-89
2024/04/09 05:17:48;;;;;;;0.50;0.47;;;;;;;;;;6294585;22;20307;-89
2024/04/09 05:20:16;;;;;;;0.80;0.80;;;;;;;;;;6334410;22;20738;-90
2024/04/09 05:22:46;;;;;;;2.30;0.87;;;;;;;;;;6368880;22;20264;-92
2024/04/09 05:25:12;;;;;;;0.63;0.60;;;;;;;;;;6377559;22;20294;-90
2024/04/09 05:27:39;;;;;;;1.50;1.13;;;;;;;;;;6378156;22;20372;-90
2024/04/09 05:30:06;;;;;;;7.33;1.20;;;;;;;;;;6376506;22;20562;-91
2024/04/09 05:32:35;;;;;;;0.67;0.67;;;;;;;;;;6418600;22;20264;-90
2024/04/09 05:35:02;;;;;;;8.63;0.90;;;;;;;;;;6418159;22;20323;-90
2024/04/09 05:37:29;;;;;;;2.37;1.53;;;;;;;;;;6418025;22;20286;-90
2024/04/09 05:39:58;;;;;;;0.67;0.40;;;;;;;;;;6376878;22;20270;-90
2024/04/09 05:42:24;;;;;;;1.70;0.63;;;;;;;;;;6337169;22;20263;-91
2024/04/09 05:44:50;;;;;;;0.80;0.80;;;;;;;;;;6374987;22;20304;-90
2024/04/09 05:47:20;;;;;;;1.10;0.90;;;;;;;;;;6376064;22;20619;-90
2024/04/09 05:49:47;;;;;;;7.40;0.50;;;;;;;;;;6377101;22;20291;-90
2024/04/09 05:52:14;;;;;;;0.70;0.70;;;;;;;;;;6375972;22;20268;-90
2024/04/09 05:54:41;;;;;;;1.00;0.73;;;;;;;;;;6376429;22;20552;-91
2024/04/09 05:57:07;;;;;;;2.87;0.80;;;;;;;;;;6376262;22;20267;-90
2024/04/09 05:59:34;;;;;;;4.53;1.53;;;;;;;;;;6374360;22;20357;-88
2024/04/09 06:02:00;;;;;;;1.13;0.83;;;;;;;;;;6333283;22;20264;-90
2024/04/09 06:04:26;;;;;;;1.27;0.50;;;;;;;;;;6336246;22;20552;-89
2024/04/09 06:06:52;;;;;;;0.30;0.30;;;;;;;;;;6334845;22;20271;-90
2024/04/09 06:09:19;;;;;;;0.70;0.40;;;;;;;;;;6334176;22;20279;-89
2024/04/09 06:11:45;;;;;;;2.67;1.17;;;;;;;;;;6333857;22;20392;-88
2024/04/09 06:14:12;;;;;;;0.30;0.30;;;;;;;;;;6374647;22;20260;-90
2024/04/09 06:16:41;;;;;;;0.40;0.40;;;;;;;;;;6334558;22;20285;-90
2024/04/09 06:19:07;;;;;;;7.73;0.87;;;;;;;;;;6321546;22;20232;-90
2024/04/09 06:21:33;;;;;;;1.77;1.10;;;;;;;;;;6334735;22;20656;-89
2024/04/09 06:23:59;;;;;;;5.63;1.63;;;;;;;;;;6416123;22;20299;-90
2024/04/09 06:26:25;;;;;;;2.57;1.33;;;;;;;;;;6416754;22;20298;-91
2024/04/09 06:28:51;;;;;;;0.30;0.30;;;;;;;;;;6334329;22;20260;-89
2024/04/09 06:31:18;;;;;;;2.90;0.43;;;;;;;;;;6334807;22;20260;-89
2024/04/09 06:33:46;;;;;;;2.50;0.70;;;;;;;;;;6336454;22;20248;-89
2024/04/09 06:36:12;;;;;;;0.33;0.33;;;;;;;;;;6336547;22;20276;-89
2024/04/09 06:38:38;;;;;;;0.33;0.33;;;;;;;;;;6376672;22;20268;-90
2024/04/09 06:41:05;;;;;;;0.20;0.20;;;;;;;;;;6336007;22;20362;-89
2024/04/09 06:43:32;;;;;;;4.87;0.30;;;;;;;;;;6335956;22;20335;-90
2024/04/09 06:45:58;;;;;;;1.20;1.10;;;;;;;;;;6377025;22;20237;-90
2024/04/09 06:48:24;;;;;;;6.43;1.63;;;;;;;;;;6337202;22;20590;-90
2024/04/09 06:50:51;;;;;;;1.03;0.43;;;;;;;;;;6336555;22;20295;-90
2024/04/09 06:53:17;;;;;;;0.30;0.30;;;;;;;;;;6376222;22;20260;-90
2024/04/09 06:55:44;;;;;;;3.00;0.57;;;;;;;;;;6335966;22;20268;-91
2024/04/09 06:58:11;;;;;;;1.53;0.80;;;;;;;;;;6380930;22;20275;-91
2024/04/09 07:00:37;;;;;;;3.83;1.40;;;;;;;;;;6339056;22;20240;-90
2024/04/09 07:03:04;;;;;;;8.13;0.93;;;;;;;;;;6341376;22;20276;-94
2024/04/09 07:05:32;;;;;;;2.93;1.27;;;;;;;;;;6381454;22;20271;-92
2024/04/09 07:08:00;;;;;;;4.80;1.07;;;;;;;;;;6422193;22;20268;-92
2024/04/09 07:10:27;;;;;;;11.57;1.37;;;;;;;;;;6377984;22;20702;-91
2024/04/09 07:12:54;;;;;;;2.50;2.40;;;;;;;;;;6379735;22;20611;-92
2024/04/09 07:15:26;;;;;;;6.27;1.23;;;;;;;;;;6378645;22;20245;-92
2024/04/09 07:17:56;;;;;;;1.20;1.07;;;;;;;;;;6379180;22;20312;-92
2024/04/09 07:20:23;;;;;;;4.00;1.23;;;;;;;;;;6384387;22;20302;-93
2024/04/09 07:22:49;;;;;;;2.97;1.03;;;;;;;;;;6341925;22;20256;-91
2024/04/09 07:25:15;;;;;;;1.13;0.80;;;;;;;;;;6341530;22;20268;-93
2024/04/09 07:27:43;;;;;;;1.80;1.50;;;;;;;;;;6388974;22;20279;-93
2024/04/09 07:30:10;;;;;;;2.00;0.60;;;;;;;;;;6438913;22;20302;-92
2024/04/09 07:32:37;;;;;;;6.40;0.37;;;;;;;;;;6378824;22;20255;-91
2024/04/09 07:35:06;;;;;;;4.50;0.77;;;;;;;;;;6379316;22;20268;-91
2024/04/09 07:37:32;;;;;;;0.90;0.90;;;;;;;;;;6378687;22;20303;-91
2024/04/09 07:40:01;;;;;;;0.93;0.93;;;;;;;;;;6379797;22;20741;-90
2024/04/09 07:42:27;;;;;;;2.23;1.20;;;;;;;;;;6381074;22;20240;-90
2024/04/09 07:44:53;;;;;;;0.87;0.77;;;;;;;;;;6379274;22;20268;-91
2024/04/09 07:47:23;;;;;;;2.33;0.50;;;;;;;;;;6378728;22;20300;-91
2024/04/09 07:49:49;;;;;;;6.93;0.90;;;;;;;;;;6376966;22;20260;-89
2024/04/09 07:52:16;;;;;;;4.13;1.00;;;;;;;;;;6336179;22;20290;-90
2024/04/09 07:54:42;;;;;;;1.47;1.37;;;;;;;;;;6419524;22;20244;-90
2024/04/09 07:57:14;;;;;;;1.37;1.27;;;;;;;;;;6338012;22;20256;-91
2024/04/09 07:59:46;;;;;;;6.63;1.10;;;;;;;;;;6380794;22;20649;-90
2024/04/09 08:02:15;;;;;;;1.60;0.97;;;;;;;;;;6420862;22;20404;-93
2024/04/09 08:04:41;;;;;;;1.80;0.80;;;;;;;;;;6338575;22;20702;-91
2024/04/09 08:07:07;;;;;;;4.37;1.20;;;;;;;;;;6337602;22;20233;-93
2024/04/09 08:09:35;;;;;;;0.90;0.90;;;;;;;;;;6339403;22;20236;-91
2024/04/09 08:12:01;;;;;;;1.57;0.70;;;;;;;;;;6419236;22;20773;-91
2024/04/09 08:14:27;;;;;;;3.27;0.50;;;;;;;;;;6419671;22;20317;-91
2024/04/09 08:16:53;;;;;;;3.27;0.80;;;;;;;;;;6337297;22;20264;-92
2024/04/09 08:19:20;;;;;;;3.13;1.20;;;;;;;;;;6337343;22;20303;-91
2024/04/09 08:21:46;;;;;;;1.67;1.20;;;;;;;;;;6339173;22;20232;-93
2024/04/09 08:24:12;;;;;;;1.47;1.03;;;;;;;;;;6341676;22;20690;-93
2024/04/09 08:26:38;;;;;;;1.10;1.00;;;;;;;;;;6378909;22;20260;-92
2024/04/09 08:29:10;;;;;;;4.33;2.10;;;;;;;;;;6339183;22;20370;-90
2024/04/09 08:31:36;;;;;;;1.53;1.37;;;;;;;;;;6379655;22;20312;-90
2024/04/09 08:34:04;;;;;;;2.57;1.07;;;;;;;;;;6339897;22;20248;-91
2024/04/09 08:36:30;;;;;;;1.53;1.43;;;;;;;;;;6378285;22;20267;-90
2024/04/09 08:38:57;;;;;;;1.23;1.17;;;;;;;;;;6338050;22;20343;-89
2024/04/09 08:41:23;;;;;;;3.77;1.63;;;;;;;;;;6337894;22;20429;-89
2024/04/09 08:43:54;;;;;;;1.73;0.87;;;;;;;;;;6420245;22;20267;-90
2024/04/09 08:46:31;;;;;;;4.63;1.57;;;;;;;;;;6378633;22;20303;-88
2024/04/09 08:48:57;;;;;;;12.10;2.10;;;;;;;;;;6380977;22;20345;-90
2024/04/09 08:51:28;;;;;;;2.63;1.50;;;;;;;;;;6377576;22;20272;-89
2024/04/09 08:53:54;;;;;;;1.03;1.03;;;;;;;;;;6368436;22;20361;-89
2024/04/09 08:56:20;;;;;;;8.97;1.57;;;;;;;;;;6286852;22;20432;-88
2024/04/09 08:58:46;;;;;;;1.47;1.37;;;;;;;;;;6327768;22;20269;-90
2024/04/09 09:01:27;;;;;;;1.23;0.87;;;;;;;;;;6327199;22;20241;-89
2024/04/09 09:03:55;;;;;;;1.63;1.10;;;;;;;;;;6328278;22;20233;-91
2024/04/09 09:06:22;;;;;;;2.57;1.20;;;;;;;;;;6286941;22;20337;-90
2024/04/09 09:08:48;;;;;;;1.43;1.33;;;;;;;;;;6287050;22;20261;-89
2024/04/09 09:11:21;;;;;;;2.67;1.07;;;;;;;;;;6326532;22;20309;-89
2024/04/09 09:13:47;;;;;;;1.23;1.13;;;;;;;;;;6286395;22;20261;-90
2024/04/09 09:16:13;;;;;;;1.07;0.93;;;;;;;;;;6286934;22;20532;-89
2024/04/09 09:18:39;;;;;;;0.73;0.67;;;;;;;;;;6327481;22;20393;-90
2024/04/09 09:21:05;;;;;;;1.03;1.03;;;;;;;;;;6249329;22;20268;-90
2024/04/09 09:23:32;;;;;;;2.20;1.23;;;;;;;;;;6288878;22;20297;-92
2024/04/09 09:25:58;;;;;;;2.67;1.10;;;;;;;;;;6374978;22;20306;-89
2024/04/09 09:28:27;;;;;;;1.20;1.10;;;;;;;;;;6377789;22;20366;-91
2024/04/09 09:30:57;;;;;;;5.70;1.90;;;;;;;;;;6339334;22;20240;-91
2024/04/09 09:33:26;;;;;;;1.67;1.30;;;;;;;;;;6378898;22;20278;-90
2024/04/09 09:35:52;;;;;;;2.00;1.53;;;;;;;;;;6419569;22;20308;-90
2024/04/09 09:38:19;;;;;;;4.00;1.20;;;;;;;;;;6337682;22;20302;-91
2024/04/09 09:40:48;;;;;;;2.30;1.70;;;;;;;;;;6378104;22;20267;-92
2024/04/09 09:43:18;;;;;;;1.23;1.17;;;;;;;;;;6376701;22;20283;-91
2024/04/09 09:45:44;;;;;;;1.50;1.37;;;;;;;;;;6378855;22;20236;-90
2024/04/09 09:48:12;;;;;;;4.33;1.00;;;;;;;;;;6378820;22;20298;-89
2024/04/09 09:50:41;;;;;;;4.30;1.10;;;;;;;;;;6378706;22;20302;-91
2024/04/09 09:53:09;;;;;;;3.43;1.30;;;;;;;;;;6338109;22;20336;-92
2024/04/09 09:55:39;;;;;;;1.17;0.93;;;;;;;;;;6378386;22;20264;-93
2024/04/09 09:58:06;;;;;;;2.00;1.33;;;;;;;;;;6380038;22;20270;-91
2024/04/09 10:00:34;;;;;;;2.50;1.97;;;;;;;;;;6381600;22;20271;-90
2024/04/09 10:03:00;;;;;;;1.50;1.37;;;;;;;;;;6379481;22;20280;-91
2024/04/09 10:05:34;;;;;;;3.10;1.43;;;;;;;;;;6421095;22;20264;-91
2024/04/09 10:08:03;;;;;;;1.53;1.43;;;;;;;;;;6381141;22;20298;-92
2024/04/09 10:10:34;;;;;;;1.17;0.97;;;;;;;;;;6344177;22;20268;-93
2024/04/09 10:13:09;;;;;;;3.53;1.10;;;;;;;;;;6328467;22;20286;-91
2024/04/09 10:15:44;;;;;;;5.73;0.70;;;;;;;;;;6423715;22;20228;-92
2024/04/09 10:18:11;;;;;;;0.70;0.70;;;;;;;;;;6380671;22;20576;-91
2024/04/09 10:20:37;;;;;;;0.70;0.70;;;;;;;;;;6339601;22;20264;-92
2024/04/09 10:23:07;;;;;;;4.43;0.80;;;;;;;;;;6340073;22;20303;-92
2024/04/09 10:25:40;;;;;;;0.30;0.30;;;;;;;;;;6343452;22;20264;-91
2024/04/09 10:28:27;;;;;;;3.10;0.90;;;;;;;;;;6424211;22;20901;-90
2024/04/09 10:30:53;;;;;;;0.40;0.40;;;;;;;;;;6424617;22;20235;-90
2024/04/09 10:33:49;;;;;;;3.90;0.70;;;;;;;;;;6338672;22;20256;-90
2024/04/09 10:36:15;;;;;;;0.33;0.30;;;;;;;;;;6359946;22;20256;-90
2024/04/09 10:38:41;;;;;;;0.70;0.70;;;;;;;;;;6339128;22;20323;-89
2024/04/09 10:41:08;;;;;;;0.20;0.20;;;;;;;;;;6339315;22;20287;-89
2024/04/09 10:43:34;;;;;;;0.50;0.50;;;;;;;;;;6378365;22;20462;-90
2024/04/09 10:46:01;;;;;;;1.87;1.37;;;;;;;;;;6338614;22;20317;-89
2024/04/09 10:48:27;;;;;;;2.07;1.23;;;;;;;;;;6299186;22;20228;-92
2024/04/09 10:50:53;;;;;;;0.90;0.83;;;;;;;;;;6298694;22;20479;-91
2024/04/09 10:53:20;;;;;;;0.70;0.70;;;;;;;;;;6338407;22;20689;-89
2024/04/09 10:55:46;;;;;;;2.40;0.70;;;;;;;;;;6337970;22;20264;-90
2024/04/09 10:58:17;;;;;;;0.50;0.50;;;;;;;;;;6298463;22;21024;-88
2024/04/09 11:00:43;;;;;;;5.40;0.70;;;;;;;;;;6339700;22;20236;-90
2024/04/09 11:03:12;;;;;;;0.40;0.40;;;;;;;;;;6341468;22;20260;-92
2024/04/09 11:05:43;;;;;;;0.50;0.50;;;;;;;;;;6342739;22;20852;-90
2024/04/09 11:08:09;;;;;;;0.63;0.50;;;;;;;;;;6341773;22;20304;-91
2024/04/09 11:10:36;;;;;;;1.00;1.00;;;;;;;;;;6338675;22;20294;-91
2024/04/09 11:13:05;;;;;;;1.07;0.57;;;;;;;;;;6338728;22;20296;-90
2024/04/09 11:15:31;;;;;;;0.57;0.40;;;;;;;;;;6376327;22;20232;-91
2024/04/09 11:18:08;;;;;;;0.70;0.70;;;;;;;;;;6340698;22;20921;-90
2024/04/09 11:20:37;;;;;;;1.53;0.40;;;;;;;;;;6382454;22;20370;-92
2024/04/09 11:23:07;;;;;;;1.70;0.80;;;;;;;;;;6382487;22;20694;-91
2024/04/09 11:25:39;;;;;;;3.93;0.70;;;;;;;;;;6424842;22;20260;-91
2024/04/09 11:28:05;;;;;;;0.67;0.67;;;;;;;;;;6384749;22;20236;-90
2024/04/09 11:30:38;;;;;;;0.50;0.30;;;;;;;;;;6341787;22;20267;-90
2024/04/09 11:33:04;;;;;;;0.40;0.40;;;;;;;;;;6379643;22;20276;-89
2024/04/09 11:35:31;;;;;;;0.33;0.33;;;;;;;;;;6339337;22;20267;-90
2024/04/09 11:37:58;;;;;;;3.03;1.00;;;;;;;;;;6381706;22;20753;-90
2024/04/09 11:40:25;;;;;;;3.23;1.13;;;;;;;;;;6379233;22;20364;-90
2024/04/09 11:42:55;;;;;;;0.33;0.33;;;;;;;;;;6341584;22;20311;-92
2024/04/09 11:45:27;;;;;;;0.60;0.60;;;;;;;;;;6380899;22;20641;-90
2024/04/09 11:47:56;;;;;;;0.50;0.50;;;;;;;;;;6379395;22;20268;-91
2024/04/09 11:50:23;;;;;;;0.50;0.40;;;;;;;;;;6381272;22;20701;-92
2024/04/09 11:52:52;;;;;;;2.43;0.83;;;;;;;;;;6380130;22;20409;-90
2024/04/09 11:55:21;;;;;;;1.10;1.00;;;;;;;;;;6339427;22;20363;-91
2024/04/09 11:57:47;;;;;;;0.57;0.53;;;;;;;;;;6382832;22;20737;-90
2024/04/09 12:00:14;;;;;;;0.60;0.60;;;;;;;;;;6382522;22;20268;-91
2024/04/09 12:02:41;;;;;;;0.67;0.60;;;;;;;;;;6425871;22;20276;-91
2024/04/09 12:05:07;;;;;;;0.43;0.40;;;;;;;;;;6382767;22;20286;-91
2024/04/09 12:07:33;;;;;;;0.30;0.30;;;;;;;;;;6384329;22;20268;-91
2024/04/09 12:09:59;;;;;;;1.53;0.47;;;;;;;;;;6387159;22;20244;-90
2024/04/09 12:12:30;;;;;;;0.40;0.40;;;;;;;;;;6387112;22;20244;-91
2024/04/09 12:14:56;;;;;;;0.37;0.37;;;;;;;;;;6425473;22;20292;-91
2024/04/09 12:17:22;;;;;;;1.53;0.40;;;;;;;;;;6384327;22;20332;-90
2024/04/09 12:19:49;;;;;;;0.73;0.73;;;;;;;;;;6343129;22;20855;-89
2024/04/09 12:22:15;;;;;;;0.40;0.40;;;;;;;;;;6381386;22;20634;-90
2024/04/09 12:24:42;;;;;;;0.50;0.50;;;;;;;;;;6424443;22;20406;-91
2024/04/09 12:27:08;;;;;;;0.53;0.53;;;;;;;;;;6379972;22;20701;-90
2024/04/09 12:29:35;;;;;;;0.40;0.40;;;;;;;;;;6382673;22;20303;-89
2024/04/09 12:32:03;;;;;;;1.50;0.60;;;;;;;;;;6340716;22;20268;-90
2024/04/09 12:34:30;;;;;;;0.60;0.40;;;;;;;;;;6382143;22;20716;-90
2024/04/09 12:36:59;;;;;;;0.20;0.20;;;;;;;;;;6341998;22;20232;-91
2024/04/09 12:39:30;;;;;;;0.40;0.40;;;;;;;;;;6423809;22;20241;-90
2024/04/09 12:41:58;;;;;;;0.73;0.73;;;;;;;;;;6380879;22;20280;-90
2024/04/09 12:44:25;;;;;;;1.00;0.70;;;;;;;;;;6382807;22;20359;-90
2024/04/09 12:46:51;;;;;;;0.93;0.93;;;;;;;;;;6380563;22;20267;-91
2024/04/09 12:49:22;;;;;;;0.30;0.30;;;;;;;;;;6381746;22;20293;-90
2024/04/09 12:51:52;;;;;;;0.90;0.90;;;;;;;;;;6383014;22;20240;-90
2024/04/09 12:54:19;;;;;;;2.27;0.63;;;;;;;;;;6380796;22;20291;-90
2024/04/09 12:56:45;;;;;;;0.80;0.80;;;;;;;;;;6339834;22;20268;-90
2024/04/09 12:59:11;;;;;;;1.30;1.20;;;;;;;;;;6379434;22;20428;-90
2024/04/09 13:01:38;;;;;;;0.63;0.53;;;;;;;;;;6338573;22;20302;-91
2024/04/09 13:04:05;;;;;;;0.43;0.43;;;;;;;;;;6382160;22;20240;-91
2024/04/09 13:06:32;;;;;;;0.40;0.40;;;;;;;;;;6380807;22;20699;-90
2024/04/09 13:08:58;;;;;;;0.60;0.60;;;;;;;;;;6382727;22;20295;-91
2024/04/09 13:11:27;;;;;;;0.63;0.40;;;;;;;;;;6384533;22;20704;-92
2024/04/09 13:13:54;;;;;;;1.80;0.53;;;;;;;;;;6347212;22;20262;-91
2024/04/09 13:16:20;;;;;;;2.10;0.73;;;;;;;;;;6387365;22;20309;-89
2024/04/09 13:18:49;;;;;;;1.13;0.67;;;;;;;;;;6390219;22;20235;-90
2024/04/09 13:21:15;;;;;;;0.67;0.67;;;;;;;;;;6391652;22;20278;-92
2024/04/09 13:23:41;;;;;;;0.73;0.53;;;;;;;;;;6331667;22;20304;-93
2024/04/09 13:26:08;;;;;;;0.40;0.40;;;;;;;;;;6250751;22;20261;-95
2024/04/09 13:28:35;;;;;;;0.40;0.40;;;;;;;;;;6248527;22;20305;-92
2024/04/09 13:31:01;;;;;;;1.13;0.80;;;;;;;;;;6271001;22;20239;-91
2024/04/09 13:33:27;;;;;;;0.40;0.40;;;;;;;;;;6232243;22;20235;-92
2024/04/09 13:35:53;;;;;;;0.73;0.73;;;;;;;;;;6192089;22;20300;-92
2024/04/09 13:38:19;;;;;;;0.47;0.47;;;;;;;;;;6230674;22;20274;-94
2024/04/09 13:40:48;;;;;;;4.93;0.90;;;;;;;;;;6231818;22;20264;-95
2024/04/09 13:43:14;;;;;;;0.40;0.33;;;;;;;;;;6221070;22;20280;-91
2024/04/09 13:45:44;;;;;;;0.83;0.83;;;;;;;;;;6235809;22;20704;-91
2024/04/09 13:48:11;;;;;;;0.50;0.50;;;;;;;;;;6235253;22;20297;-92
2024/04/09 13:50:38;;;;;;;0.20;0.20;;;;;;;;;;6193212;22;20401;-94
2024/04/09 13:53:04;;;;;;;0.30;0.30;;;;;;;;;;6189692;22;20741;-91
2024/04/09 13:55:30;;;;;;;1.03;0.93;;;;;;;;;;6155081;22;20359;-93
2024/04/09 13:57:56;;;;;;;0.50;0.50;;;;;;;;;;6194406;22;20240;-92
2024/04/09 14:00:22;;;;;;;0.83;0.83;;;;;;;;;;6202489;22;20446;-91
2024/04/09 14:02:49;;;;;;;0.50;0.50;;;;;;;;;;6367620;22;20263;-93
2024/04/09 14:05:15;;;;;;;0.30;0.30;;;;;;;;;;6347736;22;20326;-91
2024/04/09 14:07:41;;;;;;;0.50;0.40;;;;;;;;;;6348911;22;20259;-92
2024/04/09 14:10:10;;;;;;;0.40;0.40;;;;;;;;;;6393742;22;20269;-91
2024/04/09 14:12:36;;;;;;;0.63;0.57;;;;;;;;;;6394269;22;20239;-92
2024/04/09 14:15:05;;;;;;;0.40;0.40;;;;;;;;;;6356329;22;20267;-91
2024/04/09 14:17:35;;;;;;;0.20;0.20;;;;;;;;;;6393176;22;20267;-91
2024/04/09 14:20:14;;;;;;;1.43;0.70;;;;;;;;;;6392154;22;20267;-89
2024/04/09 14:22:40;;;;;;;0.40;0.40;;;;;;;;;;6392733;22;20688;-91
2024/04/09 14:25:08;;;;;;;0.20;0.20;;;;;;;;;;6393086;22;20567;-92
2024/04/09 14:27:34;;;;;;;2.07;0.20;;;;;;;;;;6394620;22;20544;-90
2024/04/09 14:30:03;;;;;;;6.53;1.57;;;;;;;;;;6393999;22;20271;-91
2024/04/09 14:32:29;;;;;;;2.67;0.50;;;;;;;;;;6391955;22;20263;-91
2024/04/09 14:34:56;;;;;;;0.27;0.27;;;;;;;;;;6393150;22;20259;-90
2024/04/09 14:37:22;;;;;;;0.93;0.30;;;;;;;;;;6350907;22;20294;-90
2024/04/09 14:39:51;;;;;;;0.70;0.50;;;;;;;;;;6348735;22;20282;-89
2024/04/09 14:42:17;;;;;;;0.67;0.67;;;;;;;;;;6387911;22;20935;-90
2024/04/09 14:44:43;;;;;;;0.30;0.30;;;;;;;;;;6389761;22;20267;-89